Pawnee, Illinois
Current Conditions -  °F | °C
As of 11:55 AM on Saturday 22 Nov 2014 (Local Time) from KTAZ Reporting Station
Overcast Overcast  
Wind Chill: 55°   Ceiling: 3300
Heat Index: 55°   Visibility: 10mi
Dew Point: 45°   Wind: 21mph
Humidity: 67%   Direction: 200°SSW
Pressure: 30.02"   Gusts: 30mph
Location:  39.59°N, 89.58°W
Report Text: KTAZ 221755Z AUTO 20018G26KT 10SM BKN033 OVC070 13/07 A3002 RMK AO2
Loading
Personal Weather Stations






























Interactive Weather Map New forecast layout! Learn more

10-Day Weather Forecast

Advertisements
Track Severe Weather on mobile